sensor_id;sensor_type;location;lat;lon;timestamp;P1;durP1;ratioP1;P2;durP2;ratioP2
15982;SDS011;14442;50.196;8.096;2024-03-07T00:01:39;6.40;;;5.90;;
15982;SDS011;14442;50.196;8.096;2024-03-07T00:04:06;6.50;;;5.90;;
15982;SDS011;14442;50.196;8.096;2024-03-07T00:06:33;6.23;;;5.70;;
15982;SDS011;14442;50.196;8.096;2024-03-07T00:09:00;5.97;;;5.47;;
15982;SDS011;14442;50.196;8.096;2024-03-07T00:11:27;6.07;;;5.67;;
15982;SDS011;14442;50.196;8.096;2024-03-07T00:13:55;6.50;;;6.03;;
15982;SDS011;14442;50.196;8.096;2024-03-07T00:16:22;6.53;;;6.00;;
15982;SDS011;14442;50.196;8.096;2024-03-07T00:18:50;9.80;;;6.30;;
15982;SDS011;14442;50.196;8.096;2024-03-07T00:21:17;6.70;;;6.20;;
15982;SDS011;14442;50.196;8.096;2024-03-07T00:23:43;5.87;;;5.43;;
15982;SDS011;14442;50.196;8.096;2024-03-07T00:26:10;6.90;;;6.23;;
15982;SDS011;14442;50.196;8.096;2024-03-07T00:28:37;6.43;;;5.93;;
15982;SDS011;14442;50.196;8.096;2024-03-07T00:31:04;6.60;;;6.00;;
15982;SDS011;14442;50.196;8.096;2024-03-07T00:33:32;6.37;;;5.87;;
15982;SDS011;14442;50.196;8.096;2024-03-07T00:36:01;6.57;;;6.07;;
15982;SDS011;14442;50.196;8.096;2024-03-07T00:38:27;6.47;;;5.97;;
15982;SDS011;14442;50.196;8.096;2024-03-07T00:40:54;5.97;;;5.47;;
15982;SDS011;14442;50.196;8.096;2024-03-07T00:43:21;6.10;;;5.70;;
15982;SDS011;14442;50.196;8.096;2024-03-07T00:45:48;6.53;;;5.97;;
15982;SDS011;14442;50.196;8.096;2024-03-07T00:48:15;5.83;;;5.43;;
15982;SDS011;14442;50.196;8.096;2024-03-07T00:50:42;6.07;;;5.57;;
15982;SDS011;14442;50.196;8.096;2024-03-07T00:53:10;5.43;;;5.03;;
15982;SDS011;14442;50.196;8.096;2024-03-07T00:55:37;5.93;;;5.43;;
15982;SDS011;14442;50.196;8.096;2024-03-07T00:58:04;5.40;;;5.00;;
15982;SDS011;14442;50.196;8.096;2024-03-07T01:00:31;5.93;;;5.53;;
15982;SDS011;14442;50.196;8.096;2024-03-07T01:02:58;5.57;;;5.17;;
15982;SDS011;14442;50.196;8.096;2024-03-07T01:05:25;5.87;;;5.37;;
15982;SDS011;14442;50.196;8.096;2024-03-07T01:07:51;5.90;;;5.50;;
15982;SDS011;14442;50.196;8.096;2024-03-07T01:10:19;5.90;;;5.40;;
15982;SDS011;14442;50.196;8.096;2024-03-07T01:12:47;5.57;;;5.17;;
15982;SDS011;14442;50.196;8.096;2024-03-07T01:15:15;5.90;;;5.30;;
15982;SDS011;14442;50.196;8.096;2024-03-07T01:17:41;5.97;;;5.57;;
15982;SDS011;14442;50.196;8.096;2024-03-07T01:20:10;6.00;;;5.60;;
15982;SDS011;14442;50.196;8.096;2024-03-07T01:22:37;6.27;;;5.70;;
15982;SDS011;14442;50.196;8.096;2024-03-07T01:25:04;6.10;;;5.67;;
15982;SDS011;14442;50.196;8.096;2024-03-07T01:27:32;7.03;;;6.33;;
15982;SDS011;14442;50.196;8.096;2024-03-07T01:30:00;6.13;;;5.63;;
15982;SDS011;14442;50.196;8.096;2024-03-07T01:32:28;6.50;;;5.90;;
15982;SDS011;14442;50.196;8.096;2024-03-07T01:34:55;6.40;;;5.90;;
15982;SDS011;14442;50.196;8.096;2024-03-07T01:37:22;6.20;;;5.70;;
15982;SDS011;14442;50.196;8.096;2024-03-07T01:39:48;6.30;;;5.83;;
15982;SDS011;14442;50.196;8.096;2024-03-07T01:42:15;6.07;;;5.60;;
15982;SDS011;14442;50.196;8.096;2024-03-07T01:44:43;6.00;;;5.50;;
15982;SDS011;14442;50.196;8.096;2024-03-07T01:47:10;6.30;;;5.80;;
15982;SDS011;14442;50.196;8.096;2024-03-07T01:49:37;6.37;;;5.87;;
15982;SDS011;14442;50.196;8.096;2024-03-07T01:52:04;6.27;;;5.67;;
15982;SDS011;14442;50.196;8.096;2024-03-07T01:54:31;5.83;;;5.43;;
15982;SDS011;14442;50.196;8.096;2024-03-07T01:56:58;6.23;;;5.73;;
15982;SDS011;14442;50.196;8.096;2024-03-07T01:59:26;5.97;;;5.50;;
15982;SDS011;14442;50.196;8.096;2024-03-07T02:01:56;5.50;;;5.10;;
15982;SDS011;14442;50.196;8.096;2024-03-07T02:04:23;6.30;;;5.80;;
15982;SDS011;14442;50.196;8.096;2024-03-07T02:06:50;6.13;;;5.63;;
15982;SDS011;14442;50.196;8.096;2024-03-07T02:09:18;6.60;;;5.90;;
15982;SDS011;14442;50.196;8.096;2024-03-07T02:11:46;6.83;;;6.13;;
15982;SDS011;14442;50.196;8.096;2024-03-07T02:14:13;6.20;;;5.60;;
15982;SDS011;14442;50.196;8.096;2024-03-07T02:16:40;5.90;;;5.50;;
15982;SDS011;14442;50.196;8.096;2024-03-07T02:19:08;5.93;;;5.53;;
15982;SDS011;14442;50.196;8.096;2024-03-07T02:21:39;6.20;;;5.70;;
15982;SDS011;14442;50.196;8.096;2024-03-07T02:24:05;6.87;;;6.37;;
15982;SDS011;14442;50.196;8.096;2024-03-07T02:26:33;7.00;;;6.30;;
15982;SDS011;14442;50.196;8.096;2024-03-07T02:29:00;6.57;;;5.97;;
15982;SDS011;14442;50.196;8.096;2024-03-07T02:31:28;6.20;;;5.70;;
15982;SDS011;14442;50.196;8.096;2024-03-07T02:34:00;6.47;;;6.00;;
15982;SDS011;14442;50.196;8.096;2024-03-07T02:36:26;6.67;;;6.07;;
15982;SDS011;14442;50.196;8.096;2024-03-07T02:38:54;6.90;;;6.40;;
15982;SDS011;14442;50.196;8.096;2024-03-07T02:41:21;6.40;;;5.90;;
15982;SDS011;14442;50.196;8.096;2024-03-07T02:43:49;6.90;;;6.40;;
15982;SDS011;14442;50.196;8.096;2024-03-07T02:46:16;6.10;;;5.53;;
15982;SDS011;14442;50.196;8.096;2024-03-07T02:48:43;6.43;;;5.93;;
15982;SDS011;14442;50.196;8.096;2024-03-07T02:51:09;6.23;;;5.73;;
15982;SDS011;14442;50.196;8.096;2024-03-07T02:53:37;6.53;;;5.93;;
15982;SDS011;14442;50.196;8.096;2024-03-07T02:56:05;6.43;;;5.93;;
15982;SDS011;14442;50.196;8.096;2024-03-07T02:58:34;6.50;;;5.90;;
15982;SDS011;14442;50.196;8.096;2024-03-07T03:01:01;6.10;;;5.60;;
15982;SDS011;14442;50.196;8.096;2024-03-07T03:03:29;6.40;;;5.90;;
15982;SDS011;14442;50.196;8.096;2024-03-07T03:05:57;6.37;;;5.83;;
15982;SDS011;14442;50.196;8.096;2024-03-07T03:08:24;11.67;;;5.80;;
15982;SDS011;14442;50.196;8.096;2024-03-07T03:10:53;6.63;;;6.13;;
15982;SDS011;14442;50.196;8.096;2024-03-07T03:13:23;7.33;;;6.73;;
15982;SDS011;14442;50.196;8.096;2024-03-07T03:15:49;7.47;;;6.77;;
15982;SDS011;14442;50.196;8.096;2024-03-07T03:18:16;6.80;;;6.30;;
15982;SDS011;14442;50.196;8.096;2024-03-07T03:20:44;7.23;;;6.67;;
15982;SDS011;14442;50.196;8.096;2024-03-07T03:23:13;7.27;;;6.67;;
15982;SDS011;14442;50.196;8.096;2024-03-07T03:25:40;7.33;;;6.73;;
15982;SDS011;14442;50.196;8.096;2024-03-07T03:28:07;7.57;;;6.97;;
15982;SDS011;14442;50.196;8.096;2024-03-07T03:30:36;7.10;;;6.53;;
15982;SDS011;14442;50.196;8.096;2024-03-07T03:33:03;6.70;;;6.20;;
15982;SDS011;14442;50.196;8.096;2024-03-07T03:35:31;6.97;;;6.47;;
15982;SDS011;14442;50.196;8.096;2024-03-07T03:37:58;6.83;;;6.33;;
15982;SDS011;14442;50.196;8.096;2024-03-07T03:40:25;6.93;;;6.40;;
15982;SDS011;14442;50.196;8.096;2024-03-07T03:42:52;6.27;;;5.87;;
15982;SDS011;14442;50.196;8.096;2024-03-07T03:45:19;6.03;;;5.63;;
15982;SDS011;14442;50.196;8.096;2024-03-07T03:47:47;6.60;;;6.10;;
15982;SDS011;14442;50.196;8.096;2024-03-07T03:50:14;6.80;;;6.30;;
15982;SDS011;14442;50.196;8.096;2024-03-07T03:52:41;6.87;;;6.27;;
15982;SDS011;14442;50.196;8.096;2024-03-07T03:55:08;6.20;;;5.80;;
15982;SDS011;14442;50.196;8.096;2024-03-07T03:57:36;6.50;;;6.00;;
15982;SDS011;14442;50.196;8.096;2024-03-07T04:00:04;7.10;;;6.40;;
15982;SDS011;14442;50.196;8.096;2024-03-07T04:02:37;6.47;;;6.00;;
15982;SDS011;14442;50.196;8.096;2024-03-07T04:05:06;6.67;;;6.13;;
15982;SDS011;14442;50.196;8.096;2024-03-07T04:07:34;6.40;;;5.90;;
15982;SDS011;14442;50.196;8.096;2024-03-07T04:10:01;6.80;;;6.23;;
15982;SDS011;14442;50.196;8.096;2024-03-07T04:12:29;6.63;;;6.17;;
15982;SDS011;14442;50.196;8.096;2024-03-07T04:14:56;6.67;;;6.17;;
15982;SDS011;14442;50.196;8.096;2024-03-07T04:17:23;6.43;;;5.93;;
15982;SDS011;14442;50.196;8.096;2024-03-07T04:19:50;7.10;;;6.40;;
15982;SDS011;14442;50.196;8.096;2024-03-07T04:22:18;5.93;;;5.53;;
15982;SDS011;14442;50.196;8.096;2024-03-07T04:24:45;6.77;;;6.27;;
15982;SDS011;14442;50.196;8.096;2024-03-07T04:27:13;6.83;;;6.37;;
15982;SDS011;14442;50.196;8.096;2024-03-07T04:29:41;6.87;;;6.20;;
15982;SDS011;14442;50.196;8.096;2024-03-07T04:32:07;6.80;;;6.30;;
15982;SDS011;14442;50.196;8.096;2024-03-07T04:34:34;6.20;;;5.73;;
15982;SDS011;14442;50.196;8.096;2024-03-07T04:37:01;7.30;;;6.70;;
15982;SDS011;14442;50.196;8.096;2024-03-07T04:39:30;6.77;;;6.20;;
15982;SDS011;14442;50.196;8.096;2024-03-07T04:41:58;6.43;;;5.93;;
15982;SDS011;14442;50.196;8.096;2024-03-07T04:44:26;6.47;;;5.87;;
15982;SDS011;14442;50.196;8.096;2024-03-07T04:46:53;7.07;;;6.47;;
15982;SDS011;14442;50.196;8.096;2024-03-07T04:49:21;6.33;;;5.80;;
15982;SDS011;14442;50.196;8.096;2024-03-07T04:51:49;6.37;;;5.83;;
15982;SDS011;14442;50.196;8.096;2024-03-07T04:54:16;6.10;;;5.67;;
15982;SDS011;14442;50.196;8.096;2024-03-07T04:56:44;6.97;;;6.47;;
15982;SDS011;14442;50.196;8.096;2024-03-07T04:59:11;6.87;;;6.37;;
15982;SDS011;14442;50.196;8.096;2024-03-07T05:01:38;6.20;;;5.70;;
15982;SDS011;14442;50.196;8.096;2024-03-07T05:04:05;6.33;;;5.83;;
15982;SDS011;14442;50.196;8.096;2024-03-07T05:06:32;6.00;;;5.50;;
15982;SDS011;14442;50.196;8.096;2024-03-07T05:08:59;6.33;;;5.70;;
15982;SDS011;14442;50.196;8.096;2024-03-07T05:11:28;5.87;;;5.27;;
15982;SDS011;14442;50.196;8.096;2024-03-07T05:13:56;6.00;;;5.30;;
15982;SDS011;14442;50.196;8.096;2024-03-07T05:16:23;4.63;;;4.23;;
15982;SDS011;14442;50.196;8.096;2024-03-07T05:18:50;5.90;;;4.87;;
15982;SDS011;14442;50.196;8.096;2024-03-07T05:21:18;6.83;;;5.57;;
15982;SDS011;14442;50.196;8.096;2024-03-07T05:24:03;5.73;;;4.37;;
15982;SDS011;14442;50.196;8.096;2024-03-07T05:26:31;5.40;;;4.90;;
15982;SDS011;14442;50.196;8.096;2024-03-07T05:29:00;5.80;;;5.10;;
15982;SDS011;14442;50.196;8.096;2024-03-07T05:31:30;13.43;;;4.93;;
15982;SDS011;14442;50.196;8.096;2024-03-07T05:33:59;9.77;;;5.30;;
15982;SDS011;14442;50.196;8.096;2024-03-07T05:36:28;8.50;;;5.13;;
15982;SDS011;14442;50.196;8.096;2024-03-07T05:38:55;10.17;;;4.70;;
15982;SDS011;14442;50.196;8.096;2024-03-07T05:41:22;17.40;;;5.27;;
15982;SDS011;14442;50.196;8.096;2024-03-07T05:43:49;38.70;;;7.93;;
15982;SDS011;14442;50.196;8.096;2024-03-07T05:46:18;25.77;;;7.07;;
15982;SDS011;14442;50.196;8.096;2024-03-07T05:48:45;25.87;;;6.73;;
15982;SDS011;14442;50.196;8.096;2024-03-07T05:51:15;19.57;;;5.93;;
15982;SDS011;14442;50.196;8.096;2024-03-07T05:53:42;25.70;;;6.47;;
15982;SDS011;14442;50.196;8.096;2024-03-07T05:56:08;20.87;;;5.77;;
15982;SDS011;14442;50.196;8.096;2024-03-07T05:58:35;14.00;;;5.00;;
15982;SDS011;14442;50.196;8.096;2024-03-07T06:01:02;15.50;;;5.60;;
15982;SDS011;14442;50.196;8.096;2024-03-07T06:03:30;9.13;;;4.53;;
15982;SDS011;14442;50.196;8.096;2024-03-07T06:05:57;12.57;;;5.33;;
15982;SDS011;14442;50.196;8.096;2024-03-07T06:08:23;13.00;;;5.53;;
15982;SDS011;14442;50.196;8.096;2024-03-07T06:10:50;8.90;;;5.03;;
15982;SDS011;14442;50.196;8.096;2024-03-07T06:13:17;8.13;;;5.50;;
15982;SDS011;14442;50.196;8.096;2024-03-07T06:15:44;11.23;;;5.17;;
15982;SDS011;14442;50.196;8.096;2024-03-07T06:18:12;11.20;;;5.03;;
15982;SDS011;14442;50.196;8.096;2024-03-07T06:20:41;5.73;;;4.90;;
15982;SDS011;14442;50.196;8.096;2024-03-07T06:23:08;9.07;;;5.13;;
15982;SDS011;14442;50.196;8.096;2024-03-07T06:25:36;7.90;;;5.10;;
15982;SDS011;14442;50.196;8.096;2024-03-07T06:28:12;8.73;;;4.47;;
15982;SDS011;14442;50.196;8.096;2024-03-07T06:30:40;5.40;;;4.50;;
15982;SDS011;14442;50.196;8.096;2024-03-07T06:33:08;7.30;;;4.93;;
15982;SDS011;14442;50.196;8.096;2024-03-07T06:35:35;7.57;;;4.70;;
15982;SDS011;14442;50.196;8.096;2024-03-07T06:38:05;7.37;;;4.73;;
15982;SDS011;14442;50.196;8.096;2024-03-07T06:40:33;5.53;;;4.37;;
15982;SDS011;14442;50.196;8.096;2024-03-07T06:42:59;5.63;;;4.20;;
15982;SDS011;14442;50.196;8.096;2024-03-07T06:45:28;7.73;;;5.10;;
15982;SDS011;14442;50.196;8.096;2024-03-07T06:47:55;5.70;;;4.80;;
15982;SDS011;14442;50.196;8.096;2024-03-07T06:50:22;4.93;;;4.43;;
15982;SDS011;14442;50.196;8.096;2024-03-07T06:52:49;5.37;;;4.50;;
15982;SDS011;14442;50.196;8.096;2024-03-07T06:55:18;4.27;;;3.87;;
15982;SDS011;14442;50.196;8.096;2024-03-07T06:57:45;4.47;;;4.07;;
15982;SDS011;14442;50.196;8.096;2024-03-07T07:00:12;4.50;;;4.10;;
15982;SDS011;14442;50.196;8.096;2024-03-07T07:02:44;5.13;;;4.20;;
15982;SDS011;14442;50.196;8.096;2024-03-07T07:05:11;5.20;;;3.87;;
15982;SDS011;14442;50.196;8.096;2024-03-07T07:07:40;4.20;;;3.83;;
15982;SDS011;14442;50.196;8.096;2024-03-07T07:10:08;4.20;;;3.90;;
15982;SDS011;14442;50.196;8.096;2024-03-07T07:12:42;5.40;;;3.97;;
15982;SDS011;14442;50.196;8.096;2024-03-07T07:15:09;4.53;;;4.23;;
15982;SDS011;14442;50.196;8.096;2024-03-07T07:17:36;4.67;;;3.80;;
15982;SDS011;14442;50.196;8.096;2024-03-07T07:20:03;4.47;;;4.07;;
15982;SDS011;14442;50.196;8.096;2024-03-07T07:22:35;4.50;;;4.10;;
15982;SDS011;14442;50.196;8.096;2024-03-07T07:25:02;5.10;;;4.70;;
15982;SDS011;14442;50.196;8.096;2024-03-07T07:27:30;3.93;;;3.63;;
15982;SDS011;14442;50.196;8.096;2024-03-07T07:29:59;4.10;;;3.77;;
15982;SDS011;14442;50.196;8.096;2024-03-07T07:32:26;4.10;;;3.90;;
15982;SDS011;14442;50.196;8.096;2024-03-07T07:34:52;3.83;;;3.63;;
15982;SDS011;14442;50.196;8.096;2024-03-07T07:37:20;4.53;;;4.17;;
15982;SDS011;14442;50.196;8.096;2024-03-07T07:39:48;4.23;;;3.93;;
15982;SDS011;14442;50.196;8.096;2024-03-07T07:42:15;3.90;;;3.60;;
15982;SDS011;14442;50.196;8.096;2024-03-07T07:44:41;3.80;;;3.50;;
15982;SDS011;14442;50.196;8.096;2024-03-07T07:47:10;3.83;;;3.53;;
15982;SDS011;14442;50.196;8.096;2024-03-07T07:49:37;4.30;;;4.00;;
15982;SDS011;14442;50.196;8.096;2024-03-07T07:52:04;4.13;;;3.83;;
15982;SDS011;14442;50.196;8.096;2024-03-07T07:54:31;3.47;;;3.27;;
15982;SDS011;14442;50.196;8.096;2024-03-07T07:56:58;3.47;;;3.23;;
15982;SDS011;14442;50.196;8.096;2024-03-07T07:59:25;3.40;;;3.20;;
15982;SDS011;14442;50.196;8.096;2024-03-07T08:01:51;4.50;;;4.20;;
15982;SDS011;14442;50.196;8.096;2024-03-07T08:04:21;4.13;;;3.83;;
15982;SDS011;14442;50.196;8.096;2024-03-07T08:06:48;3.60;;;3.37;;
15982;SDS011;14442;50.196;8.096;2024-03-07T08:09:16;3.70;;;3.50;;
15982;SDS011;14442;50.196;8.096;2024-03-07T08:11:43;3.40;;;3.20;;
15982;SDS011;14442;50.196;8.096;2024-03-07T08:14:10;3.63;;;3.43;;
15982;SDS011;14442;50.196;8.096;2024-03-07T08:16:37;3.40;;;3.20;;
15982;SDS011;14442;50.196;8.096;2024-03-07T08:19:04;3.57;;;3.37;;
15982;SDS011;14442;50.196;8.096;2024-03-07T08:21:33;4.30;;;3.90;;
15982;SDS011;14442;50.196;8.096;2024-03-07T08:23:59;3.27;;;3.07;;
15982;SDS011;14442;50.196;8.096;2024-03-07T08:26:28;3.33;;;3.03;;
15982;SDS011;14442;50.196;8.096;2024-03-07T08:28:55;3.73;;;3.53;;
15982;SDS011;14442;50.196;8.096;2024-03-07T08:31:22;3.70;;;3.03;;
15982;SDS011;14442;50.196;8.096;2024-03-07T08:33:48;3.43;;;3.13;;
15982;SDS011;14442;50.196;8.096;2024-03-07T08:36:15;3.50;;;3.30;;
15982;SDS011;14442;50.196;8.096;2024-03-07T08:38:43;3.50;;;3.30;;
15982;SDS011;14442;50.196;8.096;2024-03-07T08:41:11;3.57;;;3.37;;
15982;SDS011;14442;50.196;8.096;2024-03-07T08:43:38;3.40;;;3.20;;
15982;SDS011;14442;50.196;8.096;2024-03-07T08:46:05;3.43;;;3.20;;
15982;SDS011;14442;50.196;8.096;2024-03-07T08:48:31;3.20;;;3.00;;
15982;SDS011;14442;50.196;8.096;2024-03-07T08:50:58;3.43;;;3.23;;
15982;SDS011;14442;50.196;8.096;2024-03-07T08:53:25;2.63;;;2.53;;
15982;SDS011;14442;50.196;8.096;2024-03-07T08:55:53;3.07;;;2.87;;
15982;SDS011;14442;50.196;8.096;2024-03-07T08:58:20;3.30;;;3.10;;
15982;SDS011;14442;50.196;8.096;2024-03-07T09:00:46;3.40;;;3.20;;
15982;SDS011;14442;50.196;8.096;2024-03-07T09:03:15;3.10;;;2.90;;
15982;SDS011;14442;50.196;8.096;2024-03-07T09:05:43;3.30;;;3.10;;
15982;SDS011;14442;50.196;8.096;2024-03-07T09:08:10;3.17;;;3.00;;
15982;SDS011;14442;50.196;8.096;2024-03-07T09:10:37;2.90;;;2.80;;
15982;SDS011;14442;50.196;8.096;2024-03-07T09:13:07;3.37;;;3.17;;
15982;SDS011;14442;50.196;8.096;2024-03-07T09:15:34;2.80;;;2.70;;
15982;SDS011;14442;50.196;8.096;2024-03-07T09:18:02;3.10;;;2.90;;
15982;SDS011;14442;50.196;8.096;2024-03-07T09:20:29;2.90;;;2.70;;
15982;SDS011;14442;50.196;8.096;2024-03-07T09:22:56;2.57;;;2.47;;
15982;SDS011;14442;50.196;8.096;2024-03-07T09:25:25;2.93;;;2.73;;
15982;SDS011;14442;50.196;8.096;2024-03-07T09:27:52;3.10;;;2.90;;
15982;SDS011;14442;50.196;8.096;2024-03-07T09:30:21;3.33;;;3.03;;
15982;SDS011;14442;50.196;8.096;2024-03-07T09:32:50;3.30;;;3.03;;
15982;SDS011;14442;50.196;8.096;2024-03-07T09:35:17;3.50;;;3.00;;
15982;SDS011;14442;50.196;8.096;2024-03-07T09:37:43;3.03;;;2.83;;
15982;SDS011;14442;50.196;8.096;2024-03-07T09:40:11;2.97;;;2.77;;
15982;SDS011;14442;50.196;8.096;2024-03-07T09:42:41;2.83;;;2.67;;
15982;SDS011;14442;50.196;8.096;2024-03-07T09:45:10;2.73;;;2.53;;
15982;SDS011;14442;50.196;8.096;2024-03-07T09:47:42;3.13;;;2.87;;
15982;SDS011;14442;50.196;8.096;2024-03-07T09:50:12;4.03;;;2.83;;
15982;SDS011;14442;50.196;8.096;2024-03-07T09:52:40;3.43;;;2.80;;
15982;SDS011;14442;50.196;8.096;2024-03-07T09:55:09;3.90;;;2.77;;
15982;SDS011;14442;50.196;8.096;2024-03-07T09:57:36;4.40;;;2.53;;
15982;SDS011;14442;50.196;8.096;2024-03-07T10:00:06;3.90;;;2.97;;
15982;SDS011;14442;50.196;8.096;2024-03-07T10:02:34;3.83;;;3.10;;
15982;SDS011;14442;50.196;8.096;2024-03-07T10:05:07;3.13;;;2.83;;
15982;SDS011;14442;50.196;8.096;2024-03-07T10:07:39;3.10;;;2.80;;
15982;SDS011;14442;50.196;8.096;2024-03-07T10:10:07;5.57;;;3.83;;
15982;SDS011;14442;50.196;8.096;2024-03-07T10:12:37;3.97;;;3.60;;
15982;SDS011;14442;50.196;8.096;2024-03-07T10:15:04;3.97;;;3.43;;
15982;SDS011;14442;50.196;8.096;2024-03-07T10:17:35;5.47;;;3.10;;
15982;SDS011;14442;50.196;8.096;2024-03-07T10:20:02;3.60;;;3.30;;
15982;SDS011;14442;50.196;8.096;2024-03-07T10:22:30;3.83;;;3.53;;
15982;SDS011;14442;50.196;8.096;2024-03-07T10:24:57;4.17;;;3.20;;
15982;SDS011;14442;50.196;8.096;2024-03-07T10:27:25;3.70;;;3.40;;
15982;SDS011;14442;50.196;8.096;2024-03-07T10:29:53;3.20;;;2.90;;
15982;SDS011;14442;50.196;8.096;2024-03-07T10:32:21;9.00;;;3.20;;
15982;SDS011;14442;50.196;8.096;2024-03-07T10:34:49;8.63;;;3.50;;
15982;SDS011;14442;50.196;8.096;2024-03-07T10:37:16;3.57;;;3.13;;
15982;SDS011;14442;50.196;8.096;2024-03-07T10:39:47;5.90;;;2.87;;
15982;SDS011;14442;50.196;8.096;2024-03-07T10:42:14;4.80;;;3.13;;
15982;SDS011;14442;50.196;8.096;2024-03-07T10:44:43;4.03;;;2.90;;
15982;SDS011;14442;50.196;8.096;2024-03-07T10:47:11;4.93;;;2.87;;
15982;SDS011;14442;50.196;8.096;2024-03-07T10:49:44;3.40;;;3.10;;
15982;SDS011;14442;50.196;8.096;2024-03-07T10:52:26;3.13;;;2.80;;
15982;SDS011;14442;50.196;8.096;2024-03-07T10:55:00;2.83;;;2.60;;
15982;SDS011;14442;50.196;8.096;2024-03-07T10:57:38;6.23;;;3.33;;
15982;SDS011;14442;50.196;8.096;2024-03-07T11:00:15;4.10;;;2.70;;
15982;SDS011;14442;50.196;8.096;2024-03-07T11:03:00;6.23;;;3.03;;
15982;SDS011;14442;50.196;8.096;2024-03-07T11:05:32;4.50;;;2.93;;
15982;SDS011;14442;50.196;8.096;2024-03-07T11:07:59;4.00;;;3.20;;
15982;SDS011;14442;50.196;8.096;2024-03-07T11:10:31;3.03;;;2.73;;
15982;SDS011;14442;50.196;8.096;2024-03-07T11:12:58;3.77;;;3.23;;
15982;SDS011;14442;50.196;8.096;2024-03-07T11:15:26;3.47;;;3.20;;
15982;SDS011;14442;50.196;8.096;2024-03-07T11:17:54;3.40;;;2.80;;
15982;SDS011;14442;50.196;8.096;2024-03-07T11:20:22;4.83;;;2.87;;
15982;SDS011;14442;50.196;8.096;2024-03-07T11:22:49;4.67;;;3.37;;
15982;SDS011;14442;50.196;8.096;2024-03-07T11:25:18;4.93;;;3.47;;
15982;SDS011;14442;50.196;8.096;2024-03-07T11:27:54;3.57;;;3.27;;
15982;SDS011;14442;50.196;8.096;2024-03-07T11:30:21;3.60;;;2.73;;
15982;SDS011;14442;50.196;8.096;2024-03-07T11:32:49;3.00;;;2.80;;
15982;SDS011;14442;50.196;8.096;2024-03-07T11:35:18;4.10;;;3.07;;
15982;SDS011;14442;50.196;8.096;2024-03-07T11:37:55;4.10;;;2.80;;
15982;SDS011;14442;50.196;8.096;2024-03-07T11:43:15;2.67;;;2.47;;
15982;SDS011;14442;50.196;8.096;2024-03-07T11:45:42;4.00;;;2.90;;
15982;SDS011;14442;50.196;8.096;2024-03-07T11:48:17;2.47;;;2.23;;
15982;SDS011;14442;50.196;8.096;2024-03-07T11:50:45;2.60;;;2.50;;
15982;SDS011;14442;50.196;8.096;2024-03-07T11:53:14;2.93;;;2.73;;
15982;SDS011;14442;50.196;8.096;2024-03-07T11:55:41;3.10;;;2.90;;
15982;SDS011;14442;50.196;8.096;2024-03-07T11:58:10;3.10;;;2.90;;
15982;SDS011;14442;50.196;8.096;2024-03-07T12:00:43;3.23;;;2.77;;
15982;SDS011;14442;50.196;8.096;2024-03-07T12:03:11;2.67;;;2.50;;
15982;SDS011;14442;50.196;8.096;2024-03-07T12:05:40;3.07;;;2.87;;
15982;SDS011;14442;50.196;8.096;2024-03-07T12:08:08;2.37;;;2.23;;
15982;SDS011;14442;50.196;8.096;2024-03-07T12:10:36;3.27;;;2.83;;
15982;SDS011;14442;50.196;8.096;2024-03-07T12:13:05;2.73;;;2.53;;
15982;SDS011;14442;50.196;8.096;2024-03-07T12:15:32;2.83;;;2.63;;
15982;SDS011;14442;50.196;8.096;2024-03-07T12:18:01;2.40;;;2.20;;
15982;SDS011;14442;50.196;8.096;2024-03-07T12:20:34;2.17;;;2.07;;
15982;SDS011;14442;50.196;8.096;2024-03-07T12:23:02;2.43;;;2.23;;
15982;SDS011;14442;50.196;8.096;2024-03-07T12:25:30;2.33;;;2.23;;
15982;SDS011;14442;50.196;8.096;2024-03-07T12:28:01;2.73;;;2.47;;
15982;SDS011;14442;50.196;8.096;2024-03-07T12:30:30;5.10;;;2.60;;
15982;SDS011;14442;50.196;8.096;2024-03-07T12:32:59;2.60;;;2.40;;
15982;SDS011;14442;50.196;8.096;2024-03-07T12:35:29;3.00;;;2.10;;
15982;SDS011;14442;50.196;8.096;2024-03-07T12:37:56;2.50;;;2.30;;
15982;SDS011;14442;50.196;8.096;2024-03-07T12:40:23;6.23;;;2.67;;
15982;SDS011;14442;50.196;8.096;2024-03-07T12:42:50;2.87;;;2.40;;
15982;SDS011;14442;50.196;8.096;2024-03-07T12:45:21;2.07;;;1.90;;
15982;SDS011;14442;50.196;8.096;2024-03-07T12:47:47;3.17;;;2.47;;
15982;SDS011;14442;50.196;8.096;2024-03-07T12:50:18;2.40;;;2.20;;
15982;SDS011;14442;50.196;8.096;2024-03-07T12:52:45;5.90;;;2.37;;
15982;SDS011;14442;50.196;8.096;2024-03-07T12:55:14;2.13;;;2.00;;
15982;SDS011;14442;50.196;8.096;2024-03-07T12:57:43;2.47;;;2.30;;
15982;SDS011;14442;50.196;8.096;2024-03-07T13:00:10;2.33;;;2.20;;
15982;SDS011;14442;50.196;8.096;2024-03-07T13:02:44;2.50;;;2.30;;
15982;SDS011;14442;50.196;8.096;2024-03-07T13:05:12;2.33;;;2.13;;
15982;SDS011;14442;50.196;8.096;2024-03-07T13:07:45;2.00;;;1.90;;
15982;SDS011;14442;50.196;8.096;2024-03-07T13:10:13;2.67;;;2.10;;
15982;SDS011;14442;50.196;8.096;2024-03-07T13:12:41;2.93;;;2.37;;
15982;SDS011;14442;50.196;8.096;2024-03-07T13:15:10;3.20;;;2.27;;
15982;SDS011;14442;50.196;8.096;2024-03-07T13:17:37;4.00;;;2.23;;
15982;SDS011;14442;50.196;8.096;2024-03-07T13:20:04;3.37;;;2.30;;
15982;SDS011;14442;50.196;8.096;2024-03-07T13:22:36;2.23;;;2.13;;
15982;SDS011;14442;50.196;8.096;2024-03-07T13:25:05;2.40;;;2.20;;
15982;SDS011;14442;50.196;8.096;2024-03-07T13:27:39;2.10;;;1.97;;
15982;SDS011;14442;50.196;8.096;2024-03-07T13:30:09;2.40;;;2.20;;
15982;SDS011;14442;50.196;8.096;2024-03-07T13:32:48;2.63;;;2.03;;
15982;SDS011;14442;50.196;8.096;2024-03-07T13:35:17;1.90;;;1.80;;
15982;SDS011;14442;50.196;8.096;2024-03-07T13:37:45;1.93;;;1.60;;
15982;SDS011;14442;50.196;8.096;2024-03-07T13:40:14;2.23;;;1.97;;
15982;SDS011;14442;50.196;8.096;2024-03-07T13:42:51;2.00;;;1.90;;
15982;SDS011;14442;50.196;8.096;2024-03-07T13:45:20;4.00;;;1.90;;
15982;SDS011;14442;50.196;8.096;2024-03-07T13:47:47;2.43;;;2.23;;
15982;SDS011;14442;50.196;8.096;2024-03-07T13:50:15;1.83;;;1.70;;
15982;SDS011;14442;50.196;8.096;2024-03-07T13:52:44;1.90;;;1.80;;
15982;SDS011;14442;50.196;8.096;2024-03-07T13:55:31;2.30;;;2.10;;
15982;SDS011;14442;50.196;8.096;2024-03-07T13:58:01;1.73;;;1.67;;
15982;SDS011;14442;50.196;8.096;2024-03-07T14:00:36;1.83;;;1.73;;
15982;SDS011;14442;50.196;8.096;2024-03-07T14:06:20;1.97;;;1.87;;
15982;SDS011;14442;50.196;8.096;2024-03-07T14:08:56;1.70;;;1.50;;
15982;SDS011;14442;50.196;8.096;2024-03-07T14:12:06;2.07;;;1.97;;
15982;SDS011;14442;50.196;8.096;2024-03-07T14:18:16;1.97;;;1.87;;
15982;SDS011;14442;50.196;8.096;2024-03-07T14:21:10;3.63;;;2.00;;
15982;SDS011;14442;50.196;8.096;2024-03-07T14:24:06;3.73;;;2.00;;
15982;SDS011;14442;50.196;8.096;2024-03-07T14:27:03;3.07;;;2.30;;
15982;SDS011;14442;50.196;8.096;2024-03-07T14:29:45;1.77;;;1.67;;
15982;SDS011;14442;50.196;8.096;2024-03-07T14:32:16;3.00;;;1.93;;
15982;SDS011;14442;50.196;8.096;2024-03-07T14:34:49;1.97;;;1.80;;
15982;SDS011;14442;50.196;8.096;2024-03-07T14:37:25;2.17;;;1.90;;
15982;SDS011;14442;50.196;8.096;2024-03-07T14:39:58;2.83;;;1.83;;
15982;SDS011;14442;50.196;8.096;2024-03-07T14:42:36;1.93;;;1.80;;
15982;SDS011;14442;50.196;8.096;2024-03-07T14:45:07;2.20;;;1.93;;
15982;SDS011;14442;50.196;8.096;2024-03-07T14:47:38;2.23;;;1.70;;
15982;SDS011;14442;50.196;8.096;2024-03-07T14:50:05;1.90;;;1.80;;
15982;SDS011;14442;50.196;8.096;2024-03-07T14:52:35;2.00;;;1.90;;
15982;SDS011;14442;50.196;8.096;2024-03-07T14:55:05;1.83;;;1.73;;
15982;SDS011;14442;50.196;8.096;2024-03-07T14:57:32;1.90;;;1.80;;
15982;SDS011;14442;50.196;8.096;2024-03-07T15:00:00;2.30;;;2.10;;
15982;SDS011;14442;50.196;8.096;2024-03-07T15:02:28;2.17;;;1.90;;
15982;SDS011;14442;50.196;8.096;2024-03-07T15:04:55;1.77;;;1.67;;
15982;SDS011;14442;50.196;8.096;2024-03-07T15:07:22;1.60;;;1.50;;